Airfield :
LOGIN :

Register | Disclaimer

   EN    FR    IT 

 










Legend :    VFR   Marginal VFR   IFR   Intensive IFR   Very Intensive IFR
Visi :
Ceiling :
>= 8 km
>= 3000ft
5 to 8 km
1000 to 3000 ft
1500m to 5 km
500 to 1000 ft
800 to 1500m
200 to 500 ft
< 800m
< 200 ft
Symbols :   Thunderstorms  Fog  Heavy snow  Heavy precipitations  Wind > 20 kt
SIGMETs :     Misc.  Thunderstorms  Icing  Turbulence  Mountain Waves  Volcanic Ashes







- Airport Elevation : 1674 ft
- IATA code : BRN


LSZB - Bern Belp

CURRENT METAR :
  • 240620Z 00000KT CAVOK 12/09 Q1016 NOSIG

EXPIRED METARs :
  • 240550Z VRB02KT CAVOK 11/10 Q1016 NOSIG
  • 240520Z VRB02KT CAVOK 09/09 Q1016 NOSIG
  • 240450Z VRB02KT CAVOK 08/08 Q1016 NOSIG
  • 240420Z 32002KT CAVOK 09/08 Q1015 NOSIG
  • 240350Z VRB02KT CAVOK 08/08 Q1015 NOSIG

TAF TAF LSZB
Valid from the 24 at 06:00 until the 24 at 15:00 UTC


240525Z 2406/2415 VRB02KT CAVOK
BECMG 2408/2411 9999 FEW040
BECMG 2410/2412 FEW060TCU BKN180
PROB30
TEMPO 2412/2415 SHRA
ATIS : +41 22 417 40 76
No reported NOTAMs for that airfield.



MET'MAP, your aeronautical weather chart ! - Copyright ORBIFLY December 2007 - Disclaimer

ORBIFLY MET'MAP TEAM :

Programming & Development : Alexandra Zaïnal
Concept & Development : Baudouin d'Aumeries
Co-Development & Prog : Marc-Olivier Méhu
Technical & hardware support : Manuel Goepfert

Contact : metmap@orbifly.com




SOURCES & CREDITS :

   NOAA